createdAt,value
2018-12-06T00:01:34.874Z,5.02
2018-12-06T00:04:04.623Z,5.05
2018-12-06T00:06:34.077Z,5.08
2018-12-06T00:09:04.663Z,5.06
2018-12-06T00:11:35.282Z,5.08
2018-12-06T00:14:04.758Z,5.11
2018-12-06T00:16:34.393Z,5.11
2018-12-06T00:19:10.952Z,5.13
2018-12-06T00:21:40.987Z,5.11
2018-12-06T00:24:10.299Z,5.11
2018-12-06T00:26:40.443Z,5.14
2018-12-06T00:29:09.742Z,5.19
2018-12-06T00:31:39.042Z,5.18
2018-12-06T00:34:08.754Z,5.16
2018-12-06T00:36:38.269Z,5.23
2018-12-06T00:39:08.474Z,5.29
2018-12-06T00:41:37.853Z,5.33
2018-12-06T00:44:08.288Z,5.37
2018-12-06T00:46:37.899Z,5.42
2018-12-06T00:49:07.222Z,5.43
2018-12-06T00:51:36.777Z,5.40
2018-12-06T00:54:06.379Z,5.39
2018-12-06T00:56:38.909Z,5.37
2018-12-06T01:02:41.588Z,5.35
2018-12-06T01:05:10.997Z,5.36
2018-12-06T01:07:40.366Z,5.34
2018-12-06T01:10:10.511Z,5.33
2018-12-06T01:12:39.823Z,5.31
2018-12-06T01:15:09.452Z,5.31
2018-12-06T01:17:38.912Z,5.27
2018-12-06T01:20:09.121Z,5.28
2018-12-06T01:22:38.632Z,5.27
2018-12-06T01:25:08.266Z,5.27
2018-12-06T01:27:39.022Z,5.26
2018-12-06T01:30:08.851Z,5.28
2018-12-06T01:32:39.172Z,5.29
2018-12-06T01:35:08.513Z,5.26
2018-12-06T01:37:37.744Z,5.28
2018-12-06T01:40:07.383Z,5.24
2018-12-06T01:42:37.909Z,5.25
2018-12-06T01:45:07.435Z,5.23
2018-12-06T01:47:37.630Z,5.21
2018-12-06T01:50:07.694Z,5.20
2018-12-06T01:52:37.123Z,5.23
2018-12-06T01:55:06.694Z,5.05
2018-12-06T01:57:35.943Z,5.02
2018-12-06T02:00:06.513Z,5.05
2018-12-06T02:04:01.447Z,5.06
2018-12-06T02:06:31.623Z,5.06
2018-12-06T02:09:01.545Z,5.09
2018-12-06T02:11:32.992Z,5.10
2018-12-06T02:14:03.248Z,5.13
2018-12-06T02:16:32.632Z,5.10
2018-12-06T02:19:02.711Z,5.10
2018-12-06T02:21:32.097Z,5.12
2018-12-06T02:24:02.227Z,5.11
2018-12-06T02:26:32.307Z,5.15
2018-12-06T02:29:02.363Z,5.16
2018-12-06T02:31:32.827Z,5.14
2018-12-06T02:34:02.044Z,5.12
2018-12-06T02:36:32.196Z,5.10
2018-12-06T02:39:02.492Z,5.15
2018-12-06T02:41:32.526Z,5.14
2018-12-06T02:44:02.686Z,5.18
2018-12-06T02:46:32.008Z,5.26
2018-12-06T02:49:01.373Z,5.33
2018-12-06T02:51:30.851Z,5.35
2018-12-06T02:54:00.843Z,5.38
2018-12-06T02:56:30.862Z,5.40
2018-12-06T02:59:00.142Z,5.41
2018-12-06T03:01:29.362Z,5.41
2018-12-06T03:03:59.569Z,5.44
2018-12-06T03:06:29.682Z,5.47
2018-12-06T03:08:58.963Z,5.48
2018-12-06T03:11:28.239Z,5.51
2018-12-06T03:13:57.641Z,5.49
2018-12-06T03:16:27.448Z,5.50
2018-12-06T03:18:56.867Z,5.53
2018-12-06T03:21:26.233Z,5.55
2018-12-06T03:23:55.717Z,5.52
2018-12-06T03:26:24.962Z,5.56
2018-12-06T03:28:55.457Z,5.58
2018-12-06T03:31:25.764Z,5.61
2018-12-06T03:33:55.480Z,5.56
2018-12-06T03:36:24.818Z,5.57
2018-12-06T03:38:54.369Z,5.61
2018-12-06T03:41:24.277Z,5.64
2018-12-06T03:43:53.853Z,5.65
2018-12-06T03:46:23.947Z,5.65
2018-12-06T03:48:53.856Z,5.65
2018-12-06T03:51:23.389Z,5.62
2018-12-06T03:53:52.728Z,5.65
2018-12-06T03:56:22.180Z,5.64
2018-12-06T03:58:51.994Z,5.63
2018-12-06T04:01:21.487Z,5.63
2018-12-06T04:03:51.081Z,5.65
2018-12-06T04:06:20.689Z,5.61
2018-12-06T04:08:50.857Z,5.63
2018-12-06T04:11:20.123Z,5.65
2018-12-06T04:13:49.408Z,5.64
2018-12-06T04:16:18.640Z,5.63
2018-12-06T04:18:47.997Z,5.64
2018-12-06T04:21:18.275Z,5.60
2018-12-06T04:23:47.779Z,5.54
2018-12-06T04:26:18.493Z,5.55
2018-12-06T04:28:47.833Z,5.55
2018-12-06T04:31:17.773Z,5.56
2018-12-06T04:33:49.095Z,5.57
2018-12-06T04:36:18.340Z,5.59
2018-12-06T04:38:47.516Z,5.57
2018-12-06T04:41:17.618Z,5.55
2018-12-06T04:43:47.198Z,5.57
2018-12-06T04:46:16.705Z,5.57
2018-12-06T04:48:46.239Z,5.54
2018-12-06T04:51:22.541Z,5.54
2018-12-06T04:53:52.730Z,5.54
2018-12-06T04:56:22.313Z,5.55
2018-12-06T04:58:52.226Z,5.54
2018-12-06T05:01:21.716Z,5.57
2018-12-06T05:03:52.279Z,5.57
2018-12-06T05:06:21.584Z,5.59
2018-12-06T05:08:51.114Z,5.60
2018-12-06T05:11:20.628Z,5.61
2018-12-06T05:13:50.240Z,5.63
2018-12-06T05:16:19.774Z,5.63
2018-12-06T05:18:49.624Z,5.67
2018-12-06T05:21:19.510Z,5.71
2018-12-06T05:23:49.065Z,5.73
2018-12-06T05:26:18.589Z,5.73
2018-12-06T05:28:49.699Z,5.72
2018-12-06T05:31:19.950Z,5.69
2018-12-06T05:33:49.800Z,5.69
2018-12-06T05:36:19.860Z,5.69
2018-12-06T05:38:49.279Z,5.70
2018-12-06T05:41:18.573Z,5.71
2018-12-06T05:43:49.257Z,5.68
2018-12-06T05:46:19.808Z,5.64
2018-12-06T05:48:49.090Z,5.60
2018-12-06T05:51:18.524Z,5.59
2018-12-06T05:53:48.550Z,5.60
2018-12-06T05:56:17.971Z,5.55
2018-12-06T05:58:47.543Z,5.54
2018-12-06T06:01:17.085Z,5.50
2018-12-06T06:03:47.335Z,5.50
2018-12-06T06:06:16.568Z,5.48
2018-12-06T06:08:46.783Z,5.44
2018-12-06T06:11:17.047Z,5.42
2018-12-06T06:13:46.303Z,5.40
2018-12-06T06:16:15.981Z,5.35
2018-12-06T06:18:45.615Z,5.33
2018-12-06T06:21:15.766Z,5.35
2018-12-06T06:23:45.788Z,5.34
2018-12-06T06:26:15.262Z,5.36
2018-12-06T06:28:44.505Z,5.37
2018-12-06T06:31:13.844Z,5.41
2018-12-06T06:33:43.858Z,5.45
2018-12-06T06:36:13.135Z,5.45
2018-12-06T06:38:42.594Z,5.43
2018-12-06T06:41:11.965Z,5.41
2018-12-06T06:43:41.843Z,5.44
2018-12-06T06:46:11.125Z,5.46
2018-12-06T06:48:40.543Z,5.50
2018-12-06T06:51:10.358Z,5.56
2018-12-06T06:53:39.629Z,5.56
2018-12-06T06:56:08.874Z,5.60
2018-12-06T06:58:38.308Z,5.60
2018-12-06T07:01:07.835Z,5.55
2018-12-06T07:03:37.334Z,5.58
2018-12-06T07:06:06.765Z,5.61
2018-12-06T07:08:36.830Z,5.66
2018-12-06T07:11:06.955Z,5.68
2018-12-06T07:13:36.310Z,5.72
2018-12-06T07:16:05.579Z,5.77
2018-12-06T07:18:34.920Z,5.79
2018-12-06T07:21:05.084Z,5.80
2018-12-06T07:23:34.374Z,5.81
2018-12-06T07:26:04.494Z,5.81
2018-12-06T07:28:34.279Z,5.86
2018-12-06T07:31:03.757Z,5.91
2018-12-06T07:33:33.247Z,5.92
2018-12-06T07:36:03.551Z,5.96
2018-12-06T07:38:33.429Z,5.99
2018-12-06T07:41:02.726Z,6.07
2018-12-06T07:43:32.849Z,6.12
2018-12-06T07:46:07.841Z,6.19
2018-12-06T07:48:39.528Z,6.30
2018-12-06T07:51:09.300Z,6.33
2018-12-06T07:53:38.829Z,6.35
2018-12-06T07:56:08.299Z,6.37
2018-12-06T07:58:37.863Z,6.41
2018-12-06T08:01:08.034Z,6.43
2018-12-06T08:03:37.839Z,6.44
2018-12-06T08:06:08.056Z,6.48
2018-12-06T08:08:38.774Z,6.51
2018-12-06T08:11:08.884Z,6.56
2018-12-06T08:13:38.489Z,6.59
2018-12-06T08:16:08.827Z,6.63
2018-12-06T08:18:38.537Z,6.65
2018-12-06T08:21:08.741Z,6.71
2018-12-06T08:23:39.235Z,6.74
2018-12-06T08:26:09.321Z,6.75
2018-12-06T08:28:39.364Z,6.77
2018-12-06T08:31:09.816Z,6.77
2018-12-06T08:33:40.156Z,6.78
2018-12-06T08:36:09.669Z,6.86
2018-12-06T08:38:39.096Z,6.91
2018-12-06T08:41:08.550Z,6.98
2018-12-06T08:43:38.494Z,7.03
2018-12-06T08:46:07.795Z,7.06
2018-12-06T08:48:37.281Z,7.10
2018-12-06T08:51:07.173Z,7.13
2018-12-06T08:53:37.411Z,7.18
2018-12-06T08:56:06.731Z,7.23
2018-12-06T08:58:36.274Z,7.28
2018-12-06T09:01:06.026Z,7.33
2018-12-06T09:03:36.220Z,7.36
2018-12-06T09:06:05.596Z,7.41
2018-12-06T09:08:36.520Z,7.48
2018-12-06T09:11:06.047Z,7.60
2018-12-06T09:13:35.665Z,7.73
2018-12-06T09:16:05.303Z,7.91
2018-12-06T09:18:34.629Z,8.00
2018-12-06T09:21:05.044Z,8.07
2018-12-06T09:23:34.415Z,8.08
2018-12-06T09:26:04.135Z,8.21
2018-12-06T09:28:33.569Z,8.28
2018-12-06T09:31:03.134Z,8.29
2018-12-06T09:33:32.757Z,8.31
2018-12-06T09:36:02.062Z,8.28
2018-12-06T09:38:31.411Z,8.25
2018-12-06T09:41:01.330Z,8.24
2018-12-06T09:43:31.680Z,8.29
2018-12-06T09:46:01.163Z,8.33
2018-12-06T09:48:30.771Z,8.40
2018-12-06T09:51:00.253Z,8.45
2018-12-06T09:53:30.392Z,8.54
2018-12-06T09:56:00.545Z,8.60
2018-12-06T09:58:30.761Z,8.70
2018-12-06T10:01:00.176Z,8.77
2018-12-06T10:03:30.375Z,8.80
2018-12-06T10:06:01.494Z,8.85
2018-12-06T10:08:31.256Z,8.92
2018-12-06T10:11:00.894Z,9.00
2018-12-06T10:13:30.285Z,9.11
2018-12-06T10:15:59.905Z,9.20
2018-12-06T10:18:29.425Z,9.35
2018-12-06T10:20:59.760Z,9.54
2018-12-06T10:23:29.215Z,9.73
2018-12-06T10:25:58.865Z,9.78
2018-12-06T10:28:28.200Z,10.08
2018-12-06T10:30:57.631Z,10.42
2018-12-06T10:33:27.687Z,10.66
2018-12-06T10:35:56.990Z,10.74
2018-12-06T10:38:26.231Z,10.96
2018-12-06T10:40:55.477Z,11.04
2018-12-06T10:43:24.917Z,11.03
2018-12-06T10:46:58.354Z,10.90
2018-12-06T10:49:28.254Z,10.80
2018-12-06T10:51:57.666Z,10.75
2018-12-06T10:54:28.040Z,10.74
2018-12-06T10:56:57.863Z,10.74
2018-12-06T10:59:27.320Z,10.75
2018-12-06T11:02:02.806Z,10.76
2018-12-06T11:04:36.151Z,10.79
2018-12-06T11:07:07.827Z,10.79
2018-12-06T11:09:37.620Z,10.85
2018-12-06T11:12:07.141Z,10.97
2018-12-06T11:14:37.492Z,11.12
2018-12-06T11:17:07.455Z,11.43
2018-12-06T11:19:37.693Z,11.72
2018-12-06T11:22:07.995Z,12.09
2018-12-06T11:24:37.587Z,12.30
2018-12-06T11:27:07.235Z,12.41
2018-12-06T11:29:36.790Z,12.47
2018-12-06T11:32:06.782Z,12.43
2018-12-06T11:34:36.997Z,12.44
2018-12-06T11:37:06.997Z,12.62
2018-12-06T11:39:36.613Z,12.58
2018-12-06T11:42:06.237Z,12.69
2018-12-06T11:44:35.688Z,12.82
2018-12-06T11:47:04.907Z,12.66
2018-12-06T11:49:34.298Z,12.51
2018-12-06T11:52:04.202Z,12.31
2018-12-06T11:54:33.665Z,12.21
2018-12-06T11:57:03.114Z,12.11
2018-12-06T11:59:32.697Z,11.99
2018-12-06T12:02:02.173Z,11.98
2018-12-06T12:04:32.362Z,11.94
2018-12-06T12:07:02.575Z,11.94
2018-12-06T12:09:32.121Z,12.10
2018-12-06T12:12:01.571Z,12.15
2018-12-06T12:14:33.341Z,12.16
2018-12-06T12:17:03.275Z,12.16
2018-12-06T12:19:32.587Z,12.27
2018-12-06T12:22:02.771Z,12.28
2018-12-06T12:24:32.570Z,12.37
2018-12-06T12:27:02.353Z,12.40
2018-12-06T12:29:31.807Z,12.42
2018-12-06T12:32:01.729Z,12.50
2018-12-06T12:34:31.154Z,12.51
2018-12-06T12:37:00.682Z,12.63
2018-12-06T12:39:30.291Z,12.70
2018-12-06T12:42:00.467Z,12.96
2018-12-06T12:44:29.786Z,13.15
2018-12-06T12:46:59.158Z,13.37
2018-12-06T12:49:29.321Z,13.57
2018-12-06T12:51:59.323Z,13.49
2018-12-06T12:54:29.711Z,13.47
2018-12-06T12:56:59.641Z,13.49
2018-12-06T12:59:29.833Z,13.37
2018-12-06T13:02:00.058Z,13.22
2018-12-06T13:04:29.402Z,13.20
2018-12-06T13:07:10.147Z,13.23
2018-12-06T13:09:40.346Z,13.16
2018-12-06T13:12:10.696Z,13.17
2018-12-06T13:14:40.807Z,12.99
2018-12-06T13:17:10.306Z,12.91
2018-12-06T13:19:40.331Z,12.95
2018-12-06T13:22:09.919Z,12.83
2018-12-06T13:24:39.507Z,12.90
2018-12-06T13:27:08.902Z,12.89
2018-12-06T13:29:38.968Z,13.10
2018-12-06T13:32:08.423Z,13.24
2018-12-06T13:34:38.542Z,13.20
2018-12-06T13:37:08.015Z,13.34
2018-12-06T13:39:37.518Z,13.30
2018-12-06T13:42:07.303Z,13.35
2018-12-06T13:44:37.675Z,13.37
2018-12-06T13:47:07.658Z,13.22
2018-12-06T13:49:37.903Z,13.20
2018-12-06T13:52:07.974Z,13.02
2018-12-06T13:54:37.821Z,12.96
2018-12-06T13:57:07.627Z,12.98
2018-12-06T13:59:37.728Z,12.90
2018-12-06T14:02:07.823Z,12.91
2018-12-06T14:04:37.813Z,13.01
2018-12-06T14:07:08.362Z,13.12
2018-12-06T14:09:38.528Z,13.00
2018-12-06T14:12:08.537Z,13.01
2018-12-06T14:14:39.131Z,12.97
2018-12-06T14:17:08.883Z,12.86
2018-12-06T14:19:39.217Z,12.77
2018-12-06T14:22:09.030Z,12.67
2018-12-06T14:24:40.818Z,12.66
2018-12-06T14:27:11.025Z,12.45
2018-12-06T14:29:41.091Z,12.32
2018-12-06T14:32:11.401Z,12.28
2018-12-06T14:34:41.493Z,12.23
2018-12-06T14:37:11.672Z,12.15
2018-12-06T14:39:41.712Z,12.05
2018-12-06T14:42:12.399Z,11.85
2018-12-06T14:44:42.473Z,11.94
2018-12-06T14:47:12.748Z,11.98
2018-12-06T14:49:42.612Z,12.00
2018-12-06T14:52:13.063Z,12.01
2018-12-06T14:54:43.193Z,11.97
2018-12-06T14:57:13.482Z,11.95
2018-12-06T14:59:43.561Z,11.92
2018-12-06T15:02:14.109Z,11.88
2018-12-06T15:05:19.952Z,11.81
2018-12-06T15:07:50.209Z,11.79
2018-12-06T15:10:20.347Z,11.73
2018-12-06T15:12:51.469Z,11.70
2018-12-06T15:15:21.669Z,11.69
2018-12-06T15:17:53.052Z,11.56
2018-12-06T15:20:23.032Z,11.64
2018-12-06T15:22:52.845Z,11.51
2018-12-06T15:25:22.745Z,11.57
2018-12-06T15:27:53.732Z,11.54
2018-12-06T15:30:23.912Z,11.50
2018-12-06T15:32:54.113Z,11.43
2018-12-06T15:35:23.765Z,11.43
2018-12-06T15:37:54.585Z,11.35
2018-12-06T15:40:24.927Z,11.35
2018-12-06T15:42:54.901Z,11.29
2018-12-06T15:45:26.169Z,11.27
2018-12-06T15:47:57.404Z,11.24
2018-12-06T15:50:28.370Z,11.12
2018-12-06T15:52:58.723Z,11.13
2018-12-06T15:55:28.752Z,11.11
2018-12-06T15:57:58.447Z,11.09
2018-12-06T16:00:27.992Z,11.05
2018-12-06T16:02:57.420Z,10.99
2018-12-06T16:05:27.038Z,10.94
2018-12-06T16:07:56.659Z,10.90
2018-12-06T16:10:26.109Z,10.84
2018-12-06T16:12:55.935Z,10.83
2018-12-06T16:15:25.348Z,10.82
2018-12-06T16:17:54.882Z,10.79
2018-12-06T16:20:24.706Z,10.81
2018-12-06T16:22:54.715Z,10.84
2018-12-06T16:25:24.286Z,10.81
2018-12-06T16:27:54.414Z,10.76
2018-12-06T16:30:23.755Z,10.71
2018-12-06T16:32:53.543Z,10.66
2018-12-06T16:35:22.960Z,10.73
2018-12-06T16:37:52.558Z,10.73
2018-12-06T16:40:22.323Z,10.75
2018-12-06T16:42:52.466Z,10.74
2018-12-06T16:45:23.048Z,10.77
2018-12-06T16:47:52.857Z,10.80
2018-12-06T16:50:22.445Z,10.79
2018-12-06T16:52:52.408Z,10.77
2018-12-06T16:55:22.820Z,10.76
2018-12-06T16:57:52.779Z,10.70
2018-12-06T17:00:22.669Z,10.64
2018-12-06T17:02:52.223Z,10.51
2018-12-06T17:05:21.813Z,10.36
2018-12-06T17:07:52.573Z,10.24
2018-12-06T17:10:22.330Z,10.07
2018-12-06T17:12:51.973Z,9.95
2018-12-06T17:15:22.412Z,9.79
2018-12-06T17:17:52.018Z,9.68
2018-12-06T17:20:21.688Z,9.57
2018-12-06T17:22:51.984Z,9.52
2018-12-06T17:25:22.159Z,9.44
2018-12-06T17:28:06.292Z,9.43
2018-12-06T17:30:36.137Z,9.35
2018-12-06T17:33:05.649Z,9.38
2018-12-06T17:35:35.833Z,9.38
2018-12-06T17:38:05.665Z,9.38
2018-12-06T17:40:35.463Z,9.41
2018-12-06T17:43:06.183Z,9.42
2018-12-06T17:45:36.814Z,9.43
2018-12-06T17:48:06.638Z,9.47
2018-12-06T17:50:37.044Z,9.44
2018-12-06T17:53:07.120Z,9.48
2018-12-06T17:55:44.263Z,9.47
2018-12-06T17:58:14.184Z,9.47
2018-12-06T18:00:44.827Z,9.45
2018-12-06T18:03:14.758Z,9.47
2018-12-06T18:05:44.989Z,9.50
2018-12-06T18:08:14.959Z,9.53
2018-12-06T18:10:44.989Z,9.55
2018-12-06T18:13:14.619Z,9.55
2018-12-06T18:15:44.774Z,9.54
2018-12-06T18:18:14.784Z,9.54
2018-12-06T18:20:44.603Z,9.59
2018-12-06T18:23:14.127Z,9.63
2018-12-06T18:25:44.537Z,9.70
2018-12-06T18:28:14.293Z,9.74
2018-12-06T18:30:43.913Z,9.77
2018-12-06T18:33:13.641Z,9.75
2018-12-06T18:35:43.201Z,9.73
2018-12-06T18:38:14.412Z,9.73
2018-12-06T18:40:44.589Z,9.70
2018-12-06T18:43:14.225Z,9.70
2018-12-06T18:45:43.993Z,9.70
2018-12-06T18:48:13.598Z,9.71
2018-12-06T18:50:43.395Z,9.70
2018-12-06T18:53:12.979Z,9.67
2018-12-06T18:55:42.504Z,9.65
2018-12-06T18:58:12.138Z,9.63
2018-12-06T19:00:42.834Z,9.62
2018-12-06T19:03:12.538Z,9.62
2018-12-06T19:05:43.105Z,9.64
2018-12-06T19:08:13.512Z,9.63
2018-12-06T19:10:43.544Z,9.62
2018-12-06T19:13:13.285Z,9.59
2018-12-06T19:15:43.489Z,9.58
2018-12-06T19:18:14.148Z,9.61
2018-12-06T19:20:44.044Z,9.64
2018-12-06T19:23:14.160Z,9.66
2018-12-06T19:25:44.125Z,9.61
2018-12-06T19:28:14.140Z,9.57
2018-12-06T19:30:44.185Z,9.52
2018-12-06T19:33:14.250Z,9.48
2018-12-06T19:35:44.096Z,9.43
2018-12-06T19:38:14.404Z,9.42
2018-12-06T19:40:44.493Z,9.38
2018-12-06T19:43:13.957Z,9.42
2018-12-06T19:45:43.794Z,9.42
2018-12-06T19:48:13.398Z,9.43
2018-12-06T19:50:43.229Z,9.41
2018-12-06T19:53:13.464Z,9.47
2018-12-06T19:55:44.371Z,9.44
2018-12-06T19:58:14.079Z,9.43
2018-12-06T20:00:44.606Z,9.42
2018-12-06T20:03:14.664Z,9.42
2018-12-06T20:05:45.018Z,9.43
2018-12-06T20:08:14.966Z,9.44
2018-12-06T20:10:44.822Z,9.46
2018-12-06T20:13:14.313Z,9.47
2018-12-06T20:15:44.242Z,9.48
2018-12-06T20:18:13.907Z,9.52
2018-12-06T20:20:43.821Z,9.55
2018-12-06T20:23:15.000Z,9.60
2018-12-06T20:25:45.152Z,9.64
2018-12-06T20:28:15.479Z,9.70
2018-12-06T20:30:45.963Z,9.74
2018-12-06T20:33:15.793Z,9.75
2018-12-06T20:35:45.873Z,9.77
2018-12-06T20:38:15.289Z,9.80
2018-12-06T20:40:45.236Z,9.79
2018-12-06T20:43:15.575Z,9.79
2018-12-06T20:45:45.845Z,9.82
2018-12-06T20:48:15.931Z,9.88
2018-12-06T20:50:49.367Z,9.92
2018-12-06T20:53:17.377Z,9.92
2018-12-06T20:55:47.527Z,9.94
2018-12-06T20:58:17.164Z,9.95
2018-12-06T21:00:47.039Z,10.04
2018-12-06T21:03:19.250Z,10.11
2018-12-06T21:07:13.713Z,10.12
2018-12-06T21:09:43.355Z,10.17
2018-12-06T21:12:13.619Z,10.17
2018-12-06T21:14:43.719Z,10.18
2018-12-06T21:17:13.495Z,10.23
2018-12-06T21:19:43.226Z,10.24
2018-12-06T21:22:13.466Z,10.32
2018-12-06T21:24:43.604Z,10.33
2018-12-06T21:27:13.826Z,10.41
2018-12-06T21:29:43.526Z,10.42
2018-12-06T21:32:13.084Z,10.46
2018-12-06T21:34:43.331Z,10.46
2018-12-06T21:37:12.879Z,10.50
2018-12-06T21:39:42.910Z,10.55
2018-12-06T21:42:12.837Z,10.57
2018-12-06T21:44:43.466Z,10.65
2018-12-06T21:47:17.336Z,10.62
2018-12-06T21:49:48.350Z,10.62
2018-12-06T21:52:18.701Z,10.63
2018-12-06T21:54:48.798Z,10.66
2018-12-06T21:57:18.097Z,10.67
2018-12-06T21:59:47.857Z,10.67
2018-12-06T22:02:27.251Z,10.74
2018-12-06T22:04:57.131Z,10.74
2018-12-06T22:07:26.654Z,10.79
2018-12-06T22:09:55.965Z,10.75
2018-12-06T22:12:25.634Z,10.77
2018-12-06T22:14:55.420Z,10.81
2018-12-06T22:17:25.307Z,10.80
2018-12-06T22:19:55.721Z,10.80
2018-12-06T22:22:25.882Z,10.77
2018-12-06T22:24:56.071Z,10.73
2018-12-06T22:27:26.319Z,10.71
2018-12-06T22:29:55.705Z,10.73
2018-12-06T22:32:25.637Z,10.70
2018-12-06T22:34:55.847Z,10.68
2018-12-06T22:37:25.342Z,10.66
2018-12-06T22:39:54.907Z,10.64
2018-12-06T22:42:24.406Z,10.64
2018-12-06T22:45:10.841Z,10.65
2018-12-06T22:49:04.457Z,10.68
2018-12-06T22:51:34.228Z,10.70
2018-12-06T22:54:04.758Z,10.69
2018-12-06T22:56:34.261Z,10.68
2018-12-06T22:59:04.721Z,10.71
2018-12-06T23:01:40.385Z,10.67
2018-12-06T23:04:10.397Z,10.63
2018-12-06T23:06:39.840Z,10.61
2018-12-06T23:09:10.683Z,10.59
2018-12-06T23:11:40.207Z,10.59
2018-12-06T23:14:10.228Z,10.60
2018-12-06T23:16:39.758Z,10.62
2018-12-06T23:19:10.751Z,10.61
2018-12-06T23:21:40.899Z,10.60
2018-12-06T23:24:10.497Z,10.60
2018-12-06T23:26:40.340Z,10.57
2018-12-06T23:29:10.032Z,10.60
2018-12-06T23:31:39.599Z,10.60
2018-12-06T23:34:09.886Z,10.59
2018-12-06T23:36:40.016Z,10.59
2018-12-06T23:39:09.367Z,10.57
2018-12-06T23:41:38.615Z,10.57
2018-12-06T23:44:08.667Z,10.55
2018-12-06T23:46:37.950Z,10.55
2018-12-06T23:49:07.226Z,10.55
2018-12-06T23:51:38.667Z,10.59
2018-12-06T23:54:09.411Z,10.63
2018-12-06T23:56:38.781Z,10.68
2018-12-06T23:59:08.088Z,10.68
